Time;durP1;ratioP1;P1;durP2;ratioP2;P2;SDS_P1;SDS_P2;PMS_P1;PMS_P2;Temp;Humidity;BMP_temperature;BMP_pressure;BME280_temperature;BME280_humidity;BME280_pressure;Samples;Min_cycle;Max_cycle;Signal;HPM_P1;HPM_P2
2022/08/10 00:00:53;;;;;;;;;;;;;;;28.64;38.44;100993.00;5069216;28;1579;-37
2022/08/10 00:03:19;;;;;;;;;;;;;;;28.66;38.09;100996.41;5071678;28;1271;-40
2022/08/10 00:05:47;;;;;;;;;;;;;;;28.62;38.69;100994.97;5075466;28;1322;-38
2022/08/10 00:08:18;;;;;;;;;;;;;;;28.51;39.26;100991.59;5073606;28;1418;-43
2022/08/10 00:10:50;;;;;;;;;;;;;;;28.54;39.19;100981.44;5075752;28;1037;-39
2022/08/10 00:13:17;;;;;;;;;;;;;;;28.46;39.74;100992.03;5075644;28;1204;-37
2022/08/10 00:15:44;;;;;;;;;;;;;;;28.40;39.77;100995.28;5075548;28;1184;-41
2022/08/10 00:18:20;;;;;;;;;;;;;;;28.36;40.00;100993.06;5075390;28;1991;-41
2022/08/10 00:21:05;;;;;;;;;;;;;;;28.48;40.28;100990.06;5075132;28;1060;-36
2022/08/10 00:23:32;;;;;;;;;;;;;;;28.37;40.19;100979.50;5074587;28;1221;-37
2022/08/10 00:26:00;;;;;;;;;;;;;;;28.37;40.11;100975.97;5074830;28;1000;-42
2022/08/10 00:28:26;;;;;;;;;;;;;;;28.44;40.12;100980.63;5075429;28;1201;-40
2022/08/10 00:30:53;;;;;;;;;;;;;;;28.40;40.71;100981.03;5075032;28;1053;-40
2022/08/10 00:33:20;;;;;;;;;;;;;;;28.40;41.13;100981.03;5075214;28;1213;-40
2022/08/10 00:35:47;;;;;;;;;;;;;;;28.35;41.25;100975.28;5075244;28;1712;-42
2022/08/10 00:38:13;;;;;;;;;;;;;;;28.36;41.56;100968.94;5073065;28;1997;-36
2022/08/10 00:40:40;;;;;;;;;;;;;;;28.27;41.84;100962.59;5073244;28;1061;-40
2022/08/10 00:43:07;;;;;;;;;;;;;;;28.36;41.88;100958.22;5072759;28;1531;-41
2022/08/10 00:45:34;;;;;;;;;;;;;;;28.33;41.93;100951.28;5073333;28;1079;-38
2022/08/10 00:48:01;;;;;;;;;;;;;;;28.41;41.97;100955.94;5072880;28;1243;-37
2022/08/10 00:50:28;;;;;;;;;;;;;;;28.42;41.96;100946.94;5073426;28;1061;-40
2022/08/10 00:52:55;;;;;;;;;;;;;;;28.29;41.88;100949.91;5074586;28;1469;-39
2022/08/10 00:55:22;;;;;;;;;;;;;;;28.20;42.17;100958.81;5073860;28;1140;-39
2022/08/10 00:57:49;;;;;;;;;;;;;;;28.27;41.91;100951.88;5074114;28;1934;-36
2022/08/10 01:00:21;;;;;;;;;;;;;;;28.22;41.94;100943.44;5075006;28;1112;-42
2022/08/10 01:02:48;;;;;;;;;;;;;;;28.25;42.23;100937.78;5074735;28;1319;-41
2022/08/10 01:05:15;;;;;;;;;;;;;;;28.18;42.34;100939.34;5075139;28;1360;-35
2022/08/10 01:07:44;;;;;;;;;;;;;;;28.17;42.36;100945.72;5074725;28;1217;-38
2022/08/10 01:10:14;;;;;;;;;;;;;;;28.07;42.55;100939.50;5073422;28;1540;-40
2022/08/10 01:12:41;;;;;;;;;;;;;;;28.13;42.65;100941.63;5072863;28;1249;-40
2022/08/10 01:15:28;;;;;;;;;;;;;;;28.10;42.98;100937.41;5074712;28;1270;-38
2022/08/10 01:17:55;;;;;;;;;;;;;;;28.13;42.29;100946.97;5074389;28;1985;-37
2022/08/10 01:20:26;;;;;;;;;;;;;;;28.05;42.61;100942.34;5074252;28;1054;-38
2022/08/10 01:23:05;;;;;;;;;;;;;;;27.95;42.84;100943.31;5074509;28;1330;-36
2022/08/10 01:25:32;;;;;;;;;;;;;;;27.96;42.26;100939.66;5074408;28;1064;-39
2022/08/10 01:28:52;;;;;;;;;;;;;;;27.99;42.38;100936.69;5053293;28;2946;-39
2022/08/10 01:31:20;;;;;;;;;;;;;;;27.97;42.74;100944.00;5031271;28;1199;-37
2022/08/10 01:33:50;;;;;;;;;;;;;;;27.98;43.08;100934.97;5053796;28;1306;-37
2022/08/10 01:36:34;;;;;;;;;;;;;;;28.01;43.47;100940.06;5054058;28;1183;-40
2022/08/10 01:39:02;;;;;;;;;;;;;;;28.02;43.58;100944.44;5054308;28;1914;-39
2022/08/10 01:41:49;;;;;;;;;;;;;;;28.00;43.67;100944.56;5060928;28;1148;-39
2022/08/10 01:44:24;;;;;;;;;;;;;;;28.04;41.40;100935.28;5074175;28;1068;-39
2022/08/10 01:46:54;;;;;;;;;;;;;;;27.98;40.71;100929.63;5073794;28;1378;-37
2022/08/10 01:49:23;;;;;;;;;;;;;;;27.98;40.02;100924.28;5073866;28;1040;-40
2022/08/10 01:51:52;;;;;;;;;;;;;;;28.06;40.71;100921.75;5073816;28;1287;-38
2022/08/10 01:54:20;;;;;;;;;;;;;;;28.07;39.53;100915.41;5073939;28;1016;-40
2022/08/10 01:56:48;;;;;;;;;;;;;;;28.07;38.82;100920.78;5073767;28;1246;-39
2022/08/10 01:59:15;;;;;;;;;;;;;;;28.14;38.62;100909.34;5073690;28;1909;-39
2022/08/10 02:01:46;;;;;;;;;;;;;;;28.10;39.52;100912.44;5073641;28;1016;-41
2022/08/10 02:04:14;;;;;;;;;;;;;;;28.02;39.50;100912.31;5073677;28;1096;-38
2022/08/10 02:06:45;;;;;;;;;;;;;;;28.09;39.52;100908.91;5073212;28;761;-38
2022/08/10 02:09:14;;;;;;;;;;;;;;;28.04;40.20;100907.63;5072778;28;1410;-42
2022/08/10 02:11:42;;;;;;;;;;;;;;;28.07;40.41;100902.03;5073432;28;996;-42
2022/08/10 02:14:34;;;;;;;;;;;;;;;28.10;40.98;100904.41;5073976;28;2149;-39
2022/08/10 02:17:02;;;;;;;;;;;;;;;28.08;41.21;100898.38;5072748;28;1304;-40
2022/08/10 02:19:30;;;;;;;;;;;;;;;28.09;41.02;100900.03;5072981;28;1906;-37
2022/08/10 02:21:58;;;;;;;;;;;;;;;28.27;40.99;100892.94;5072530;28;1603;-41
2022/08/10 02:24:45;;;;;;;;;;;;;;;28.34;40.92;100891.38;5073660;28;2029;-39
2022/08/10 02:27:13;;;;;;;;;;;;;;;28.12;40.89;100884.53;5073218;28;1213;-39
2022/08/10 02:29:42;;;;;;;;;;;;;;;28.15;40.79;100886.91;5071932;28;1063;-41
2022/08/10 02:32:14;;;;;;;;;;;;;;;28.04;40.98;100880.84;5073638;28;1299;-36
2022/08/10 02:35:02;;;;;;;;;;;;;;;28.06;40.85;100884.25;5073107;28;2389;-41
2022/08/10 02:37:30;;;;;;;;;;;;;;;28.03;40.71;100874.66;5072772;28;1205;-43
2022/08/10 02:39:57;;;;;;;;;;;;;;;27.95;40.68;100868.34;5073402;28;1906;-36
2022/08/10 02:42:24;;;;;;;;;;;;;;;27.91;40.73;100864.25;5072932;28;1221;-38
2022/08/10 02:45:14;;;;;;;;;;;;;;;27.97;40.43;100867.19;5073514;28;2002;-42
2022/08/10 02:48:25;;;;;;;;;;;;;;;27.89;40.82;100863.56;5073123;28;1271;-41
2022/08/10 02:50:57;;;;;;;;;;;;;;;27.83;40.84;100874.84;5059735;28;1024;-34
2022/08/10 02:53:34;;;;;;;;;;;;;;;27.81;40.99;100874.16;5072879;28;1209;-37
2022/08/10 02:56:21;;;;;;;;;;;;;;;27.77;41.12;100878.94;5073145;28;2215;-42
2022/08/10 02:59:02;;;;;;;;;;;;;;;27.87;40.97;100879.78;5072761;28;1910;-42
2022/08/10 03:01:32;;;;;;;;;;;;;;;27.79;40.97;100876.09;5073077;28;1198;-41
2022/08/10 03:04:03;;;;;;;;;;;;;;;27.86;41.10;100879.91;5073010;28;1243;-40
2022/08/10 03:06:40;;;;;;;;;;;;;;;27.71;41.33;100879.50;5072586;28;703;-40
2022/08/10 03:09:10;;;;;;;;;;;;;;;27.70;41.37;100883.16;5071947;28;1419;-35
2022/08/10 03:11:38;;;;;;;;;;;;;;;27.74;41.39;100881.03;5072129;28;1101;-38
2022/08/10 03:14:25;;;;;;;;;;;;;;;27.67;41.32;100883.44;5072787;28;2163;-38
2022/08/10 03:16:53;;;;;;;;;;;;;;;27.68;40.80;100886.00;5072471;28;1185;-40
2022/08/10 03:19:20;;;;;;;;;;;;;;;27.68;41.29;100886.00;5071832;28;1906;-36
2022/08/10 03:22:08;;;;;;;;;;;;;;;27.69;41.49;100887.66;5076211;28;2121;-40
2022/08/10 03:24:35;;;;;;;;;;;;;;;27.74;41.39;100889.94;5076758;28;1064;-37
2022/08/10 03:27:03;;;;;;;;;;;;;;;27.68;41.82;100880.63;5076822;28;1217;-35
2022/08/10 03:29:30;;;;;;;;;;;;;;;27.76;41.83;100873.72;5076594;28;1124;-40
2022/08/10 03:32:18;;;;;;;;;;;;;;;27.71;42.03;100882.19;5076083;28;2229;-41
2022/08/10 03:34:45;;;;;;;;;;;;;;;27.62;42.46;100881.22;5076301;28;1359;-36
2022/08/10 03:37:12;;;;;;;;;;;;;;;27.68;43.25;100877.13;5076265;28;1254;-41
2022/08/10 03:39:38;;;;;;;;;;;;;;;27.58;43.63;100879.78;5076564;28;1985;-36
2022/08/10 03:42:10;;;;;;;;;;;;;;;27.47;44.17;100871.91;5076178;28;1301;-39
2022/08/10 03:44:36;;;;;;;;;;;;;;;27.40;44.28;100880.59;5076475;28;1139;-37
2022/08/10 03:47:04;;;;;;;;;;;;;;;27.44;44.21;100872.19;5075785;28;1306;-42
2022/08/10 03:49:42;;;;;;;;;;;;;;;27.40;44.33;100870.75;5076283;28;1115;-38
2022/08/10 03:52:09;;;;;;;;;;;;;;;27.30;44.58;100872.56;5075796;28;1193;-40
2022/08/10 03:54:36;;;;;;;;;;;;;;;27.39;44.00;100870.91;5076325;28;1076;-41
2022/08/10 03:57:03;;;;;;;;;;;;;;;27.40;44.45;100865.41;5075388;28;1302;-40
2022/08/10 03:59:30;;;;;;;;;;;;;;;27.42;43.67;100874.16;5076011;28;1984;-38
2022/08/10 04:01:57;;;;;;;;;;;;;;;27.39;44.34;100871.72;5076053;28;1279;-40
2022/08/10 04:04:44;;;;;;;;;;;;;;;27.41;44.04;100867.09;5075976;28;2190;-40
2022/08/10 04:07:11;;;;;;;;;;;;;;;27.40;43.66;100875.25;5075828;28;1303;-39
2022/08/10 04:09:38;;;;;;;;;;;;;;;27.30;43.57;100869.88;5069373;28;1528;-41
2022/08/10 04:12:24;;;;;;;;;;;;;;;27.28;43.44;100871.88;5055532;28;1280;-36
2022/08/10 04:14:51;;;;;;;;;;;;;;;27.23;43.25;100860.75;5055737;28;1139;-39
2022/08/10 04:17:20;;;;;;;;;;;;;;;27.38;43.32;100870.06;5055466;28;1224;-41
2022/08/10 04:20:10;;;;;;;;;;;;;;;27.37;43.36;100867.50;5055262;28;2027;-40
2022/08/10 04:22:38;;;;;;;;;;;;;;;27.21;43.46;100869.91;5066901;28;1323;-40
2022/08/10 04:25:06;;;;;;;;;;;;;;;27.25;43.54;100857.91;5075193;28;1627;-41
2022/08/10 04:27:32;;;;;;;;;;;;;;;27.15;42.66;100865.94;5075457;28;1212;-35
2022/08/10 04:29:59;;;;;;;;;;;;;;;27.17;41.46;100863.97;5075465;28;1149;-42
2022/08/10 04:32:27;;;;;;;;;;;;;;;27.22;42.15;100869.75;5068960;28;1211;-40
2022/08/10 04:34:55;;;;;;;;;;;;;;;27.25;41.48;100869.47;5055031;28;1518;-38
2022/08/10 04:37:22;;;;;;;;;;;;;;;27.15;42.12;100868.59;5054934;28;1224;-41
2022/08/10 04:39:49;;;;;;;;;;;;;;;27.21;41.95;100873.41;5055241;28;1984;-37
2022/08/10 04:42:16;;;;;;;;;;;;;;;27.25;41.24;100868.63;5054070;28;1302;-39
2022/08/10 04:44:43;;;;;;;;;;;;;;;27.24;40.54;100870.44;5054949;28;1068;-39
2022/08/10 04:47:09;;;;;;;;;;;;;;;27.27;40.66;100875.50;5054873;28;1217;-36
2022/08/10 04:49:37;;;;;;;;;;;;;;;27.26;40.68;100873.84;5055065;28;1085;-40
2022/08/10 04:52:22;;;;;;;;;;;;;;;27.23;40.48;100866.09;5054941;28;1312;-42
2022/08/10 04:54:50;;;;;;;;;;;;;;;27.19;41.04;100878.03;5055121;28;1138;-39
2022/08/10 04:57:18;;;;;;;;;;;;;;;27.10;41.51;100878.88;5054748;28;1311;-39
2022/08/10 04:59:44;;;;;;;;;;;;;;;27.11;42.15;100877.91;5054776;28;1910;-40
2022/08/10 05:02:11;;;;;;;;;;;;;;;27.05;42.09;100881.94;5054613;28;1212;-40
2022/08/10 05:04:57;;;;;;;;;;;;;;;27.11;41.60;100881.41;5054859;28;1218;-40
2022/08/10 05:07:24;;;;;;;;;;;;;;;27.14;41.63;100877.63;5054704;28;1190;-39
2022/08/10 05:09:51;;;;;;;;;;;;;;;27.32;40.76;100877.78;5054267;28;1046;-40
2022/08/10 05:12:31;;;;;;;;;;;;;;;27.07;41.36;100887.19;5054532;28;1366;-40
2022/08/10 05:15:05;;;;;;;;;;;;;;;27.11;41.41;100894.75;5055157;28;1252;-42
2022/08/10 05:17:32;;;;;;;;;;;;;;;27.20;41.29;100903.81;5054113;28;1305;-40
2022/08/10 05:19:59;;;;;;;;;;;;;;;27.11;41.54;100907.31;5054618;28;1989;-38
2022/08/10 05:22:30;;;;;;;;;;;;;;;27.18;41.58;100908.44;5053595;28;1311;-43
2022/08/10 05:24:57;;;;;;;;;;;;;;;27.28;41.39;100913.81;5054532;28;1069;-41
2022/08/10 05:27:24;;;;;;;;;;;;;;;27.22;41.47;100917.88;5054294;28;1220;-38
2022/08/10 05:29:50;;;;;;;;;;;;;;;27.19;41.72;100926.19;5054503;28;1100;-39
2022/08/10 05:32:29;;;;;;;;;;;;;;;27.25;41.71;100924.78;5054133;28;1303;-40
2022/08/10 05:34:56;;;;;;;;;;;;;;;27.15;42.15;100930.09;5053373;28;1652;-40
2022/08/10 05:37:23;;;;;;;;;;;;;;;27.13;42.58;100930.25;5053781;28;1263;-42
2022/08/10 05:40:10;;;;;;;;;;;;;;;27.18;42.18;100943.19;5054212;28;2302;-40
2022/08/10 05:42:37;;;;;;;;;;;;;;;27.15;42.41;100935.44;5054214;28;1303;-42
2022/08/10 05:45:04;;;;;;;;;;;;;;;27.15;42.66;100941.66;5054107;28;1147;-36
2022/08/10 05:47:31;;;;;;;;;;;;;;;27.25;42.05;100939.00;5053699;28;1291;-38
2022/08/10 05:50:20;;;;;;;;;;;;;;;27.27;42.34;100939.69;5054496;28;2030;-38
2022/08/10 05:52:47;;;;;;;;;;;;;;;27.16;42.56;100939.81;5053877;28;1284;-40
2022/08/10 05:55:13;;;;;;;;;;;;;;;27.12;42.36;100946.41;5053916;28;1307;-43
2022/08/10 05:57:43;;;;;;;;;;;;;;;27.20;42.49;100943.06;5053650;28;1224;-39
2022/08/10 06:00:13;;;;;;;;;;;;;;;27.25;42.36;100944.34;5054080;28;1913;-32
2022/08/10 06:03:02;;;;;;;;;;;;;;;27.31;41.99;100943.81;5053559;28;1960;-39
2022/08/10 06:05:31;;;;;;;;;;;;;;;27.32;42.01;100952.69;5054007;28;1072;-40
2022/08/10 06:07:58;;;;;;;;;;;;;;;27.31;42.31;100950.97;5053482;28;1310;-42
2022/08/10 06:10:25;;;;;;;;;;;;;;;27.36;42.20;100954.09;5053559;28;1045;-42
2022/08/10 06:16:01;;;;;;;;;;;;;;;27.60;41.35;100947.38;5053494;28;1112;-43
2022/08/10 06:18:28;;;;;;;;;;;;;;;27.57;41.61;100944.16;5053251;28;1494;-36
2022/08/10 06:20:56;;;;;;;;;;;;;;;27.58;41.70;100946.69;5052305;28;1979;-41
2022/08/10 06:23:24;;;;;;;;;;;;;;;27.59;41.74;100953.75;5053236;28;1286;-42
2022/08/10 06:25:50;;;;;;;;;;;;;;;27.65;41.66;100947.81;5053308;28;1087;-38
2022/08/10 06:28:38;;;;;;;;;;;;;;;27.67;42.11;100956.53;5055673;28;1987;-38
2022/08/10 06:31:06;;;;;;;;;;;;;;;27.75;41.93;100949.66;5068521;28;1240;-40
2022/08/10 06:33:34;;;;;;;;;;;;;;;27.80;41.85;100955.44;5070874;28;1600;-38
2022/08/10 06:36:02;;;;;;;;;;;;;;;27.85;41.12;100961.19;5069362;28;1120;-40
2022/08/10 06:38:30;;;;;;;;;;;;;;;27.85;40.92;100961.19;5072480;28;1204;-36
2022/08/10 06:40:58;;;;;;;;;;;;;;;27.84;41.30;100957.69;5072914;28;1913;-38
2022/08/10 06:43:25;;;;;;;;;;;;;;;27.88;41.14;100961.75;5072728;28;1212;-41
2022/08/10 06:45:54;;;;;;;;;;;;;;;27.88;41.11;100953.72;5072771;28;1021;-42
2022/08/10 06:48:36;;;;;;;;;;;;;;;27.88;41.60;100966.25;5072201;28;1370;-42
2022/08/10 06:51:12;;;;;;;;;;;;;;;27.93;41.42;100962.19;5073220;28;1194;-34
2022/08/10 06:53:41;;;;;;;;;;;;;;;28.03;40.97;100954.13;5072810;28;1288;-39
2022/08/10 06:56:27;;;;;;;;;;;;;;;28.00;40.77;100959.78;5072489;28;1037;-43
2022/08/10 06:59:07;;;;;;;;;;;;;;;28.24;39.98;100954.03;5072932;28;1315;-38
2022/08/10 07:01:49;;;;;;;;;;;;;;;28.48;38.33;100965.94;5072741;28;1042;-40
2022/08/10 07:04:21;;;;;;;;;;;;;;;28.47;38.61;100958.03;5072151;28;1147;-38
2022/08/10 07:07:00;;;;;;;;;;;;;;;28.42;39.14;100965.69;5068715;28;1324;-42
2022/08/10 07:09:29;;;;;;;;;;;;;;;28.60;38.52;100954.06;5072392;28;1099;-38
2022/08/10 07:11:57;;;;;;;;;;;;;;;28.46;40.01;100962.56;5071607;28;1218;-37
2022/08/10 07:14:38;;;;;;;;;;;;;;;28.52;39.76;100967.34;5072284;28;1136;-37
2022/08/10 07:17:08;;;;;;;;;;;;;;;28.54;39.80;100968.06;5072143;28;1217;-35
2022/08/10 07:19:44;;;;;;;;;;;;;;;28.56;39.08;100968.75;5072430;28;1922;-38
2022/08/10 07:22:19;;;;;;;;;;;;;;;28.58;39.77;100966.75;5072209;28;1293;-39
2022/08/10 07:25:07;;;;;;;;;;;;;;;28.68;38.42;100962.25;5072601;28;2333;-38
2022/08/10 07:27:34;;;;;;;;;;;;;;;28.73;39.03;100970.69;5072188;28;1307;-38
2022/08/10 07:30:21;;;;;;;;;;;;;;;28.68;40.03;100967.59;5069896;28;2162;-39
2022/08/10 07:32:50;;;;;;;;;;;;;;;28.76;40.54;100969.53;5071601;28;1354;-34
2022/08/10 07:35:17;;;;;;;;;;;;;;;28.90;40.99;100968.22;5068364;28;1520;-41
2022/08/10 07:37:48;;;;;;;;;;;;;;;28.78;41.41;100972.09;5072004;28;1331;-39
2022/08/10 07:40:16;;;;;;;;;;;;;;;28.77;41.06;100971.22;5072615;28;1895;-41
2022/08/10 07:42:44;;;;;;;;;;;;;;;28.79;41.44;100968.41;5072401;28;1319;-39
2022/08/10 07:45:12;;;;;;;;;;;;;;;28.79;41.29;100966.56;5072137;28;1261;-36
2022/08/10 07:47:41;;;;;;;;;;;;;;;29.07;40.45;100978.16;5071732;28;1329;-41
2022/08/10 07:50:21;;;;;;;;;;;;;;;29.02;40.55;100969.72;5071840;28;1100;-36
2022/08/10 07:52:48;;;;;;;;;;;;;;;28.94;41.01;100967.75;5072147;28;1273;-39
2022/08/10 07:55:17;;;;;;;;;;;;;;;28.98;41.45;100971.00;5071501;28;1412;-41
2022/08/10 07:57:45;;;;;;;;;;;;;;;29.06;41.54;100966.56;5071777;28;1307;-41
2022/08/10 08:00:12;;;;;;;;;;;;;;;29.05;40.40;100966.75;5072382;28;1910;-42
2022/08/10 08:02:50;;;;;;;;;;;;;;;29.33;38.37;100965.78;5072136;28;1249;-40
2022/08/10 08:05:19;;;;;;;;;;;;;;;29.40;37.91;100969.53;5072018;28;1275;-33
2022/08/10 08:08:07;;;;;;;;;;;;;;;29.19;40.61;100967.06;5073832;28;2152;-39
2022/08/10 08:10:34;;;;;;;;;;;;;;;29.19;40.68;100961.72;5074712;28;1555;-43
2022/08/10 08:13:01;;;;;;;;;;;;;;;29.15;40.82;100960.31;5073863;28;1256;-42
2022/08/10 08:15:29;;;;;;;;;;;;;;;29.21;40.58;100958.91;5073419;28;1033;-42
2022/08/10 08:18:16;;;;;;;;;;;;;;;29.49;37.81;100957.03;5073771;28;2231;-41
2022/08/10 08:20:50;;;;;;;;;;;;;;;29.75;36.25;100957.97;5075219;28;1921;-41
2022/08/10 08:23:20;;;;;;;;;;;;;;;29.44;38.51;100951.28;5074099;28;1251;-41
2022/08/10 08:26:07;;;;;;;;;;;;;;;29.29;40.02;100945.59;5074577;28;2296;-38
2022/08/10 08:28:36;;;;;;;;;;;;;;;29.53;37.33;100956.59;5073551;28;1326;-41
2022/08/10 08:31:03;;;;;;;;;;;;;;;29.44;39.97;100957.50;5073121;28;1021;-37
2022/08/10 08:33:30;;;;;;;;;;;;;;;29.46;39.97;100950.13;5072653;28;1495;-39
2022/08/10 08:36:10;;;;;;;;;;;;;;;29.57;37.19;100955.28;5072438;28;1031;-41
2022/08/10 08:38:37;;;;;;;;;;;;;;;29.99;34.38;100952.00;5072384;28;1370;-39
2022/08/10 08:41:27;;;;;;;;;;;;;;;29.52;39.11;100952.19;5072813;28;1910;-41
2022/08/10 08:44:12;;;;;;;;;;;;;;;29.45;40.02;100944.94;5069881;28;1248;-36
2022/08/10 08:46:51;;;;;;;;;;;;;;;29.57;37.69;100947.25;5074592;28;1108;-35
2022/08/10 08:49:27;;;;;;;;;;;;;;;29.55;38.94;100946.53;5074764;28;1117;-40
2022/08/10 08:52:17;;;;;;;;;;;;;;;29.50;39.47;100946.16;5074703;28;2156;-40
2022/08/10 08:54:56;;;;;;;;;;;;;;;29.60;38.92;100938.88;5074655;28;1083;-42
2022/08/10 08:57:41;;;;;;;;;;;;;;;29.57;39.33;100944.56;5074324;28;1292;-38
2022/08/10 09:00:22;;;;;;;;;;;;;;;29.60;39.14;100938.03;5074319;28;1914;-39
2022/08/10 09:02:49;;;;;;;;;;;;;;;29.61;38.30;100940.56;5074478;28;1200;-41
2022/08/10 09:05:20;;;;;;;;;;;;;;;29.96;35.73;100944.25;5074397;28;1053;-40
2022/08/10 09:08:02;;;;;;;;;;;;;;;30.45;34.16;100940.09;5074051;28;1306;-42
2022/08/10 09:10:38;;;;;;;;;;;;;;;29.99;37.71;100936.72;5073951;28;757;-33
2022/08/10 09:13:25;;;;;;;;;;;;;;;29.88;38.30;100936.16;5073986;28;1179;-41
2022/08/10 09:15:55;;;;;;;;;;;;;;;29.69;38.76;100932.59;5073978;28;1012;-40
2022/08/10 09:18:44;;;;;;;;;;;;;;;29.68;39.33;100927.38;5073593;28;1305;-39
2022/08/10 09:21:27;;;;;;;;;;;;;;;30.22;39.11;100923.63;5074078;28;1906;-39
2022/08/10 09:24:00;;;;;;;;;;;;;;;30.14;38.96;100927.13;5072982;28;1299;-41
2022/08/10 09:26:34;;;;;;;;;;;;;;;30.26;38.46;100920.47;5073666;28;1108;-35
2022/08/10 09:29:01;;;;;;;;;;;;;;;30.46;39.18;100923.81;5073617;28;1197;-38
2022/08/10 09:31:51;;;;;;;;;;;;;;;29.91;39.94;100931.31;5072963;28;1591;-40
2022/08/10 09:34:48;;;;;;;;;;;;;;;30.06;43.03;100929.75;5063094;28;2144;-37
2022/08/10 09:37:34;;;;;;;;;;;;;;;30.07;41.35;100935.94;5070715;28;2017;-41
2022/08/10 09:40:28;;;;;;;;;;;;;;;30.40;45.06;100932.50;5070039;28;2474;-39
2022/08/10 09:43:47;;;;;;;;;;;;;;;30.15;43.33;100927.97;5070522;28;2205;-37
2022/08/10 09:46:20;;;;;;;;;;;;;;;30.45;46.70;100923.97;5044936;28;1420;-37
2022/08/10 09:48:55;;;;;;;;;;;;;;;30.44;45.45;100923.13;5071398;28;1337;-41
2022/08/10 09:51:41;;;;;;;;;;;;;;;30.82;45.58;100916.44;5072172;28;1069;-41
2022/08/10 09:54:30;;;;;;;;;;;;;;;31.00;43.46;100908.31;5072023;28;1374;-36
2022/08/10 09:56:57;;;;;;;;;;;;;;;30.76;44.81;100912.53;5072426;28;1248;-39
2022/08/10 09:59:51;;;;;;;;;;;;;;;30.29;45.45;100919.31;5072035;28;2160;-39
2022/08/10 10:02:42;;;;;;;;;;;;;;;30.54;44.45;100913.13;5072060;28;1308;-38
2022/08/10 10:05:20;;;;;;;;;;;;;;;30.42;44.89;100914.41;5071309;28;1434;-41
2022/08/10 10:07:52;;;;;;;;;;;;;;;30.98;44.27;100910.28;5070677;28;1225;-36
2022/08/10 10:10:21;;;;;;;;;;;;;;;30.55;44.66;100914.78;5072109;28;1161;-42
2022/08/10 10:12:57;;;;;;;;;;;;;;;30.57;45.15;100915.50;5071772;28;1337;-36
2022/08/10 10:15:43;;;;;;;;;;;;;;;30.79;49.57;100917.59;5070598;28;1056;-37
2022/08/10 10:18:33;;;;;;;;;;;;;;;30.69;47.27;100918.72;5072001;28;1299;-37
2022/08/10 10:20:59;;;;;;;;;;;;;;;30.34;48.58;100911.59;5072571;28;1983;-38
2022/08/10 10:23:32;;;;;;;;;;;;;;;31.05;50.45;100906.81;5071085;28;1144;-40
2022/08/10 10:26:17;;;;;;;;;;;;;;;30.62;47.83;100915.84;5070063;28;1061;-40
2022/08/10 10:28:44;;;;;;;;;;;;;;;30.64;48.46;100899.56;5068891;28;1268;-37
2022/08/10 10:31:31;;;;;;;;;;;;;;;30.53;47.92;100911.44;5070240;28;1962;-35
2022/08/10 10:34:17;;;;;;;;;;;;;;;30.76;50.85;100903.66;5071075;28;1797;-36
2022/08/10 10:36:44;;;;;;;;;;;;;;;30.80;49.95;100905.84;5071377;28;1098;-39
2022/08/10 10:39:13;;;;;;;;;;;;;;;31.05;47.63;100908.66;5071639;28;1331;-39
2022/08/10 10:41:47;;;;;;;;;;;;;;;31.07;47.09;100907.47;5072537;28;1977;-39
2022/08/10 10:44:42;;;;;;;;;;;;;;;30.89;46.96;100912.94;5072314;28;1050;-37
2022/08/10 10:47:27;;;;;;;;;;;;;;;30.47;47.65;100911.22;5072159;28;1209;-39
2022/08/10 10:50:32;;;;;;;;;;;;;;;30.46;47.94;100912.25;5072836;28;1099;-39
2022/08/10 10:53:21;;;;;;;;;;;;;;;30.62;46.04;100913.16;5049637;28;1251;-37
2022/08/10 10:55:51;;;;;;;;;;;;;;;30.52;45.34;100914.28;5049739;28;1073;-42
2022/08/10 10:58:57;;;;;;;;;;;;;;;30.49;46.08;100904.66;5062200;28;2252;-41
2022/08/10 11:01:29;;;;;;;;;;;;;;;30.72;44.79;100903.13;5064482;28;1997;-38
2022/08/10 11:03:59;;;;;;;;;;;;;;;30.62;44.35;100902.41;5070164;28;1374;-39
2022/08/10 11:06:42;;;;;;;;;;;;;;;30.63;44.43;100903.25;5071572;28;1005;-40
2022/08/10 11:09:12;;;;;;;;;;;;;;;30.57;44.64;100906.56;5071704;28;1197;-40
2022/08/10 11:12:02;;;;;;;;;;;;;;;30.84;43.90;100899.13;5051150;28;2008;-39
2022/08/10 11:14:30;;;;;;;;;;;;;;;30.73;43.87;100888.66;5052769;28;1103;-39
2022/08/10 11:17:00;;;;;;;;;;;;;;;30.66;43.91;100884.94;5071391;28;1655;-39
2022/08/10 11:19:27;;;;;;;;;;;;;;;30.67;43.91;100886.63;5071852;28;1082;-38
2022/08/10 11:22:17;;;;;;;;;;;;;;;30.75;43.90;100886.66;5051564;28;2177;-36
2022/08/10 11:25:00;;;;;;;;;;;;;;;31.40;42.71;100890.38;5054652;28;1146;-38
2022/08/10 11:27:30;;;;;;;;;;;;;;;31.10;43.59;100879.41;5070764;28;1363;-37
2022/08/10 11:30:01;;;;;;;;;;;;;;;31.64;42.64;100875.31;5068301;28;1511;-37
2022/08/10 11:32:39;;;;;;;;;;;;;;;31.26;46.70;100871.34;5070886;28;1375;-41
2022/08/10 11:35:33;;;;;;;;;;;;;;;31.52;44.51;100876.66;5070526;28;1399;-39
2022/08/10 11:38:18;;;;;;;;;;;;;;;31.68;43.92;100874.78;5062427;28;1232;-42
2022/08/10 11:41:09;;;;;;;;;;;;;;;31.77;42.71;100878.31;5072609;28;1977;-42
2022/08/10 11:44:17;;;;;;;;;;;;;;;31.85;43.06;100875.63;5074405;28;2079;-37
2022/08/10 11:46:52;;;;;;;;;;;;;;;31.92;43.08;100880.16;5074902;28;1724;-40
2022/08/10 11:49:25;;;;;;;;;;;;;;;31.83;43.87;100874.94;5075027;28;1763;-43
2022/08/10 11:51:56;;;;;;;;;;;;;;;31.89;44.14;100872.41;5053767;28;1607;-44
2022/08/10 11:54:34;;;;;;;;;;;;;;;31.92;43.95;100873.94;5054582;28;1156;-44
2022/08/10 11:57:00;;;;;;;;;;;;;;;31.97;44.31;100865.34;5054672;28;1299;-45
2022/08/10 12:02:26;;;;;;;;;;;;;;;32.00;44.08;100870.41;5074222;28;1913;-46
2022/08/10 12:05:15;;;;;;;;;;;;;;;31.88;43.39;100870.75;5073981;28;1092;-46
2022/08/10 12:07:45;;;;;;;;;;;;;;;32.04;45.49;100871.78;5074563;28;1303;-46
2022/08/10 12:10:33;;;;;;;;;;;;;;;31.96;39.77;100872.59;5073866;28;2310;-45
2022/08/10 12:13:15;;;;;;;;;;;;;;;31.92;43.04;100872.06;5074172;28;1367;-46
2022/08/10 12:15:51;;;;;;;;;;;;;;;31.81;46.49;100866.19;5073861;28;1084;-45
2022/08/10 12:18:46;;;;;;;;;;;;;;;31.84;45.52;100866.72;5074162;28;1295;-45
2022/08/10 12:21:29;;;;;;;;;;;;;;;31.84;42.58;100864.03;5058091;28;1906;-45
2022/08/10 12:24:00;;;;;;;;;;;;;;;31.89;41.57;100874.25;5074035;28;1783;-46
2022/08/10 12:26:48;;;;;;;;;;;;;;;31.80;40.61;100870.75;5073808;28;1155;-46
2022/08/10 12:29:53;;;;;;;;;;;;;;;31.93;41.79;100872.94;5073044;28;1568;-45
2022/08/10 12:32:21;;;;;;;;;;;;;;;31.75;42.41;100867.72;5012062;28;1383;-46
2022/08/10 12:34:59;;;;;;;;;;;;;;;31.71;42.45;100871.75;5025671;28;1906;-47
2022/08/10 12:37:30;;;;;;;;;;;;;;;31.68;42.74;100872.09;5052771;28;1316;-45
2022/08/10 12:40:09;;;;;;;;;;;;;;;31.72;42.78;100872.59;5074850;28;1123;-45
2022/08/10 12:43:00;;;;;;;;;;;;;;;31.79;42.68;100873.63;5074191;28;1991;-45
2022/08/10 12:45:55;;;;;;;;;;;;;;;31.67;41.96;100867.75;5073356;28;2348;-45
2022/08/10 12:48:27;;;;;;;;;;;;;;;31.71;41.56;100871.75;5071411;28;1425;-46
2022/08/10 12:50:58;;;;;;;;;;;;;;;31.75;40.98;100867.72;5072883;28;1041;-46
2022/08/10 12:53:39;;;;;;;;;;;;;;;31.73;40.97;100860.84;5071322;28;1404;-45
2022/08/10 12:56:06;;;;;;;;;;;;;;;31.86;40.85;100853.06;5071458;28;1136;-45
2022/08/10 12:58:36;;;;;;;;;;;;;;;31.91;41.64;100856.94;5067619;28;1519;-46
2022/08/10 13:01:24;;;;;;;;;;;;;;;31.86;41.39;100858.44;5072684;28;2091;-45
2022/08/10 13:04:15;;;;;;;;;;;;;;;31.75;39.62;100853.41;5069377;28;2248;-45
2022/08/10 13:06:50;;;;;;;;;;;;;;;31.91;40.48;100856.94;5072889;28;1299;-46
2022/08/10 13:09:23;;;;;;;;;;;;;;;31.75;41.31;100851.56;5072964;28;1048;-45
2022/08/10 13:11:58;;;;;;;;;;;;;;;31.80;39.32;100857.28;5069045;28;1221;-45
2022/08/10 13:14:51;;;;;;;;;;;;;;;31.76;39.65;100858.66;5069628;28;2171;-45
2022/08/10 13:17:21;;;;;;;;;;;;;;;31.67;40.96;100853.44;5072816;28;1252;-46
2022/08/10 13:19:49;;;;;;;;;;;;;;;31.73;41.73;100848.22;5065938;28;1059;-46
2022/08/10 13:22:22;;;;;;;;;;;;;;;31.81;40.38;100853.59;5072713;28;1981;-45
2022/08/10 13:24:50;;;;;;;;;;;;;;;31.85;39.79;100846.84;5072904;28;1095;-45
2022/08/10 13:27:40;;;;;;;;;;;;;;;31.74;41.82;100849.88;5072589;28;1283;-46
2022/08/10 13:30:27;;;;;;;;;;;;;;;31.84;40.96;100838.94;5071556;28;2149;-45
2022/08/10 13:33:04;;;;;;;;;;;;;;;31.86;42.11;100837.75;5072350;28;1303;-47